• Join FlightAware (Why Join?)
  • Login
  • US Flag 
02:14AM EDT


 

Airport Tracker/Info


-or-


 

Live Flight TrackerFlight Track Log ✈ TAM3702 ✈ 19-Sep-2013 ✈ SBSP / CGH - SBBR / BSB

Flight Track Log - Related Links

Times and Time Zones

All times are in EDT time to prevent confusion due to time zone crossing. See the TAM3702 flight status page for this flight to view local times or setup timezone preferences in your user account.

Time Position Orientation Groundspeed Altitude Reporting Facility
EDT Latitude Longitude Course Direction KTS MPH feet Rate Location/Type
06:34AM -21.5347 -47.0068 351° North  Level Estimated
06:35AM -21.4475 -47.0213 351° North  Level Estimated
06:36AM -21.3604 -47.0357 351° North  Level Estimated
06:37AM -21.2732 -47.0500 351° North  Level Estimated
06:38AM -21.1860 -47.0644 351° North  Level Estimated
06:39AM -21.0988 -47.0788 351° North  Level Estimated
06:40AM -21.0116 -47.0931 351° North  Level Estimated
06:41AM -20.9244 -47.1074 351° North  Level Estimated
06:42AM -20.8372 -47.1217 351° North  Level Estimated
06:43AM -20.7500 -47.1360 351° North  Level Estimated
06:44AM -20.6628 -47.1503 351° North  Level Estimated
06:45AM -20.5757 -47.1645 351° North  Level Estimated
06:46AM -20.4885 -47.1787 351° North  Level Estimated
06:47AM -20.4013 -47.1930 351° North  Level Estimated
06:48AM -20.3141 -47.2072 351° North  Level Estimated
06:49AM -20.2269 -47.2214 351° North  Level Estimated
06:50AM -20.1397 -47.2355 351° North  Level Estimated
06:51AM -20.0525 -47.2497 351° North  Level Estimated
06:52AM -19.9653 -47.2638 351° North  Level Estimated
06:53AM -19.8781 -47.2779 351° North  Level Estimated
06:54AM -19.7909 -47.2920 351° North  Level Estimated
06:55AM -19.7036 -47.3061 351° North  Level Estimated
06:56AM -19.6164 -47.3202 351° North  Level Estimated
06:57AM -19.5292 -47.3343 351° North  Level Estimated
06:58AM -19.4420 -47.3483 351° North  Level Estimated
06:59AM -19.3548 -47.3624 351° North  Level Estimated
07:00AM -19.2676 -47.3764 351° North  Level Estimated
07:01AM -19.1804 -47.3904 351° North  Level Estimated
07:02AM -19.0932 -47.4044 351° North  Level Estimated
07:03AM -19.0060 -47.4183 351° North  Level Estimated
07:04AM -18.9188 -47.4323 351° North  Level Estimated
07:05AM -18.8315 -47.4462 351° North  Level Estimated
07:06AM -18.7443 -47.4602 351° North  Level Estimated
07:07AM -18.6571 -47.4741 351° North  Level Estimated
07:08AM -18.5699 -47.4880 351° North  Level Estimated
07:09AM -18.4827 -47.5019 351° North  Level Estimated
07:10AM -18.3954 -47.5157 351° North  Level Estimated
07:11AM -18.3082 -47.5296 351° North  Level Estimated
07:12AM -18.2210 -47.5434 351° North  Level Estimated
07:13AM -18.1338 -47.5573 351° North  Level Estimated
07:14AM -18.0466 -47.5711 351° North  Level Estimated
07:15AM -17.9593 -47.5849 351° North  Level Estimated
07:16AM -17.8721 -47.5987 351° North  Level Estimated
07:17AM -17.7849 -47.6124 351° North  Level Estimated
07:18AM -17.6976 -47.6262 351° North  Level Estimated
07:19AM -17.6104 -47.6399 351° North  Level Estimated
07:20AM -17.5232 -47.6537 351° North  Level Estimated
07:21AM -17.4359 -47.6674 351° North  Level Estimated
07:22AM -17.3487 -47.6811 351° North  Level Estimated
07:23AM -17.2615 -47.6948 351° North  Level Estimated
07:24AM -17.1742 -47.7085 351° North  Level Estimated
07:25AM -17.0870 -47.7221 351° North  Level Estimated
07:26AM -16.9998 -47.7358 351° North  Level Estimated
07:27AM -16.9125 -47.7494 351° North  Level Estimated
07:28AM -16.8253 -47.7631 351° North  Level Estimated
07:29AM -16.7381 -47.7767 351° North  Level Estimated
07:30AM -16.6508 -47.7903 352° North  Level Estimated
07:31AM -16.5636 -47.8039 352° North  Level Estimated
07:32AM -16.4763 -47.8175 352° North  Level Estimated
07:33AM -16.3891 -47.8310 352° North  Level Estimated
07:34AM -16.3018 -47.8446 352° North  Level Estimated
07:35AM -16.2146 -47.8581 352° North  Level Estimated
07:36AM -16.1274 -47.8717 352° North  Level Estimated
07:37AM -16.0401 -47.8852 352° North  Level Estimated
07:38AM -15.9529 -47.8987 352° North  Level Estimated
07:39AM -15.8656 -47.9122 352° North  Level Estimated
07:40AM -15.8626 -47.9127 352° North  Level Estimated
07:41AM -15.8626 -47.9127 128° Southeast  Level Estimated
07:42AM -15.8626 -47.9127 128° Southeast  Level Estimated
07:43AM -15.8626 -47.9127 128° Southeast  Level Estimated
07:44AM -15.8626 -47.9127 128° Southeast  Level Estimated
07:45AM -15.8626 -47.9127 128° Southeast  Level Estimated
07:46AM -15.8626 -47.9127 128° Southeast  Level Estimated
07:47AM -15.8626 -47.9127 128° Southeast  Level Estimated
07:48AM -15.8626 -47.9127 128° Southeast  Level Estimated
07:49AM -15.8626 -47.9127 128° Southeast  Level Estimated
07:50AM -15.8626 -47.9127 128° Southeast  Level Estimated
07:51AM -15.8626 -47.9127 128° Southeast  Level Estimated